Terminal Aerodrome Forecast
Issued by NWS

Home | Current Version | Previous Version | Text Only | Print | Product List | Glossary Off
Versions: 1 2 3 4 5 6 7 8 9 10 11 12 13 14 15 16 17 18

000
FTUS43 KMPX 191313 AAA
TAFRNH
TAF AMD
KRNH 191313Z 1913/2012 30010KT P6SM SCT060
     FM191800 30012G20KT P6SM SCT050 BKN090
     FM200200 27005KT P6SM BKN250
     FM200700 VRB03KT P6SM VCSH SCT050 BKN090=

USA.gov is the U.S. government's official web portal to all federal, state and local government web resources and services.